createdAt,value
2022-08-03T00:02:17.647Z,7.95
2022-08-03T00:04:44.951Z,7.55
2022-08-03T00:07:11.844Z,10.07
2022-08-03T00:09:38.783Z,11.75
2022-08-03T00:12:06.417Z,10.40
2022-08-03T00:14:33.657Z,11.07
2022-08-03T00:17:00.696Z,11.10
2022-08-03T00:19:28.181Z,13.18
2022-08-03T00:21:55.209Z,12.82
2022-08-03T00:24:22.169Z,25.83
2022-08-03T00:26:49.082Z,18.63
2022-08-03T00:29:16.037Z,18.88
2022-08-03T00:31:52.725Z,13.65
2022-08-03T00:34:57.388Z,12.68
2022-08-03T00:37:13.479Z,17.88
2022-08-03T00:39:40.954Z,24.20
2022-08-03T00:42:07.986Z,13.45
2022-08-03T00:44:42.887Z,12.55
2022-08-03T00:47:11.574Z,15.93
2022-08-03T00:49:40.992Z,20.55
2022-08-03T00:52:13.904Z,13.55
2022-08-03T00:54:41.111Z,21.50
2022-08-03T00:57:08.498Z,19.45
2022-08-03T00:59:38.239Z,21.45
2022-08-03T01:02:05.878Z,18.90
2022-08-03T01:04:33.431Z,18.60
2022-08-03T01:07:18.089Z,20.60
2022-08-03T01:10:18.319Z,13.32
2022-08-03T01:14:02.354Z,13.90
2022-08-03T01:16:25.816Z,12.77
2022-08-03T01:19:29.446Z,13.65
2022-08-03T01:22:44.098Z,12.82
2022-08-03T01:25:44.650Z,12.27
2022-08-03T01:28:39.584Z,14.05
2022-08-03T01:31:10.701Z,13.82
2022-08-03T01:33:44.491Z,13.40
2022-08-03T01:36:19.741Z,14.07
2022-08-03T01:38:52.666Z,14.90
2022-08-03T01:41:31.454Z,14.38
2022-08-03T01:44:29.417Z,15.05
2022-08-03T01:46:51.296Z,15.13
2022-08-03T01:49:18.771Z,14.93
2022-08-03T01:51:58.607Z,15.40
2022-08-03T01:54:42.429Z,14.48
2022-08-03T01:57:10.603Z,13.50
2022-08-03T01:59:39.317Z,14.07
2022-08-03T02:02:31.959Z,14.60
2022-08-03T02:04:57.745Z,13.52
2022-08-03T02:07:27.231Z,15.60
2022-08-03T02:10:16.690Z,13.82
2022-08-03T02:13:05.897Z,15.10
2022-08-03T02:15:34.156Z,14.10
2022-08-03T02:18:03.934Z,13.80
2022-08-03T02:20:33.222Z,13.32
2022-08-03T02:23:00.432Z,14.70
2022-08-03T02:25:28.820Z,14.20
2022-08-03T02:28:11.062Z,14.65
2022-08-03T02:30:41.163Z,14.63
2022-08-03T02:33:25.674Z,14.18
2022-08-03T02:35:54.472Z,19.98
2022-08-03T02:38:28.559Z,14.35
2022-08-03T02:40:57.410Z,14.95
2022-08-03T02:43:25.485Z,14.73
2022-08-03T02:45:54.496Z,14.15
2022-08-03T02:48:26.906Z,14.57
2022-08-03T02:50:57.839Z,18.75
2022-08-03T02:53:27.420Z,16.17
2022-08-03T02:55:57.006Z,16.13
2022-08-03T02:58:26.005Z,15.77
2022-08-03T03:00:54.509Z,15.98
2022-08-03T03:03:23.290Z,16.95
2022-08-03T03:05:57.623Z,16.88
2022-08-03T03:08:28.240Z,16.92
2022-08-03T03:10:59.900Z,16.83
2022-08-03T03:13:31.844Z,16.20
2022-08-03T03:16:01.752Z,19.13
2022-08-03T03:18:31.475Z,17.17
2022-08-03T03:21:01.286Z,17.90
2022-08-03T03:23:29.311Z,20.55
2022-08-03T03:25:58.996Z,19.52
2022-08-03T03:28:26.621Z,27.08
2022-08-03T03:30:53.741Z,21.60
2022-08-03T03:33:22.651Z,22.52
2022-08-03T03:35:51.613Z,22.98
2022-08-03T03:38:20.085Z,21.58
2022-08-03T03:40:47.729Z,20.98
2022-08-03T03:43:14.818Z,25.95
2022-08-03T03:45:43.046Z,20.58
2022-08-03T03:48:10.312Z,22.65
2022-08-03T03:50:40.997Z,22.17
2022-08-03T03:53:13.977Z,21.75
2022-08-03T03:55:59.675Z,25.10
2022-08-03T03:58:29.840Z,25.48
2022-08-03T04:01:04.368Z,25.27
2022-08-03T04:03:31.466Z,23.60
2022-08-03T04:06:17.612Z,28.17
2022-08-03T04:09:04.362Z,23.95
2022-08-03T04:11:43.972Z,24.02
2022-08-03T04:14:20.349Z,21.98
2022-08-03T04:16:53.884Z,22.25
2022-08-03T04:19:38.834Z,23.08
2022-08-03T04:22:10.846Z,23.02
2022-08-03T04:24:50.560Z,23.88
2022-08-03T04:27:26.116Z,34.35
2022-08-03T04:29:55.583Z,26.20
2022-08-03T04:32:26.313Z,22.15
2022-08-03T04:34:53.881Z,24.45
2022-08-03T04:40:44.348Z,27.75
2022-08-03T04:43:14.147Z,25.23
2022-08-03T04:45:42.791Z,27.13
2022-08-03T04:48:10.068Z,24.85
2022-08-03T04:50:37.639Z,23.50
2022-08-03T04:53:07.272Z,25.08
2022-08-03T04:55:35.831Z,25.80
2022-08-03T04:58:04.419Z,23.65
2022-08-03T05:00:31.761Z,25.77
2022-08-03T05:02:59.201Z,23.83
2022-08-03T05:05:48.979Z,24.63
2022-08-03T05:08:14.822Z,22.90
2022-08-03T05:10:41.826Z,24.05
2022-08-03T05:13:12.952Z,22.88
2022-08-03T05:15:43.206Z,23.70
2022-08-03T05:18:14.186Z,27.95
2022-08-03T05:20:41.812Z,24.50
2022-08-03T05:23:08.936Z,24.35
2022-08-03T05:25:35.894Z,24.65
2022-08-03T05:28:04.350Z,25.10
2022-08-03T05:30:34.140Z,25.92
2022-08-03T05:33:03.963Z,24.08
2022-08-03T05:35:55.650Z,22.63
2022-08-03T05:38:20.904Z,22.75
2022-08-03T05:41:21.812Z,25.00
2022-08-03T05:43:46.115Z,25.00
2022-08-03T05:46:13.702Z,24.42
2022-08-03T05:48:42.721Z,24.27
2022-08-03T05:51:12.281Z,22.52
2022-08-03T05:53:45.743Z,22.35
2022-08-03T05:56:15.980Z,22.50
2022-08-03T05:58:46.274Z,21.58
2022-08-03T06:01:14.430Z,19.17
2022-08-03T06:03:41.677Z,19.53
2022-08-03T06:06:08.885Z,16.77
2022-08-03T06:08:36.105Z,16.65
2022-08-03T06:11:04.037Z,14.00
2022-08-03T06:13:32.226Z,19.50
2022-08-03T06:15:59.315Z,17.15
2022-08-03T06:18:26.321Z,16.23
2022-08-03T06:20:53.925Z,14.50
2022-08-03T06:23:25.351Z,17.20
2022-08-03T06:26:09.691Z,21.15
2022-08-03T06:28:53.347Z,14.20
2022-08-03T06:31:26.016Z,12.80
2022-08-03T06:34:34.262Z,13.35
2022-08-03T06:36:52.244Z,10.90
2022-08-03T06:39:20.324Z,13.18
2022-08-03T06:41:47.522Z,10.85
2022-08-03T06:44:15.283Z,11.23
2022-08-03T06:46:43.375Z,10.85
2022-08-03T06:49:10.521Z,10.68
2022-08-03T06:52:05.203Z,9.77
2022-08-03T06:54:27.400Z,11.35
2022-08-03T06:56:54.619Z,10.75
2022-08-03T07:00:08.644Z,12.82
2022-08-03T07:02:09.806Z,9.40
2022-08-03T07:04:37.865Z,9.57
2022-08-03T07:07:05.056Z,9.27
2022-08-03T07:09:32.374Z,8.40
2022-08-03T07:11:59.500Z,6.90
2022-08-03T07:14:26.469Z,7.20
2022-08-03T07:16:53.427Z,4.65
2022-08-03T07:19:20.879Z,4.25
2022-08-03T07:21:48.046Z,3.28
2022-08-03T07:24:15.052Z,2.08
2022-08-03T07:26:42.137Z,2.45
2022-08-03T07:29:14.685Z,1.48
2022-08-03T07:31:42.678Z,1.38
2022-08-03T07:34:09.722Z,3.50
2022-08-03T07:36:37.107Z,3.33
2022-08-03T07:39:17.794Z,5.03
2022-08-03T07:41:46.302Z,3.63
2022-08-03T07:44:13.828Z,6.60
2022-08-03T07:46:40.908Z,2.40
2022-08-03T07:49:07.932Z,2.15
2022-08-03T07:51:35.214Z,1.17
2022-08-03T07:54:02.805Z,1.52
2022-08-03T07:56:30.308Z,2.35
2022-08-03T07:58:57.715Z,8.27
2022-08-03T08:01:25.542Z,2.83
2022-08-03T08:03:53.739Z,2.72
2022-08-03T08:06:23.765Z,3.13
2022-08-03T08:08:50.759Z,4.40
2022-08-03T08:11:17.854Z,4.90
2022-08-03T08:13:44.970Z,2.85
2022-08-03T08:16:11.888Z,2.25
2022-08-03T08:18:38.819Z,1.90
2022-08-03T08:21:05.852Z,4.70
2022-08-03T08:23:43.737Z,1.52
2022-08-03T08:26:12.604Z,5.25
2022-08-03T08:28:39.908Z,1.90
2022-08-03T08:31:07.065Z,5.10
2022-08-03T08:34:02.585Z,1.63
2022-08-03T08:36:22.261Z,1.42
2022-08-03T08:38:49.250Z,2.05
2022-08-03T08:41:16.712Z,2.50
2022-08-03T08:43:43.893Z,5.50
2022-08-03T08:46:13.228Z,3.33
2022-08-03T08:48:52.659Z,2.63
2022-08-03T08:51:21.920Z,1.58
2022-08-03T08:53:53.789Z,1.98
2022-08-03T08:56:26.072Z,2.45
2022-08-03T08:58:58.914Z,0.93
2022-08-03T09:01:27.376Z,1.90
2022-08-03T09:03:55.222Z,1.10
2022-08-03T09:06:23.490Z,1.83
2022-08-03T09:08:50.682Z,1.50
2022-08-03T09:11:52.551Z,1.85
2022-08-03T09:14:37.040Z,2.42
2022-08-03T09:17:08.138Z,2.47
2022-08-03T09:19:37.507Z,4.18
2022-08-03T09:22:15.631Z,4.07
2022-08-03T09:25:23.201Z,1.17
2022-08-03T09:27:48.523Z,2.40
2022-08-03T09:30:34.087Z,2.25
2022-08-03T09:33:08.559Z,3.40
2022-08-03T09:35:54.067Z,2.05
2022-08-03T09:38:28.419Z,1.42
2022-08-03T09:41:00.239Z,7.93
2022-08-03T09:43:28.957Z,1.07
2022-08-03T09:46:07.966Z,2.15
2022-08-03T09:48:37.446Z,2.33
2022-08-03T09:51:14.095Z,4.55
2022-08-03T09:53:58.808Z,2.88
2022-08-03T09:59:25.961Z,0.73
2022-08-03T10:01:56.225Z,4.22
2022-08-03T10:04:24.000Z,1.50
2022-08-03T10:07:09.310Z,2.17
2022-08-03T10:09:37.560Z,0.95
2022-08-03T10:12:13.293Z,1.92
2022-08-03T10:14:42.218Z,2.53
2022-08-03T10:17:12.651Z,1.20
2022-08-03T10:19:41.342Z,1.75
2022-08-03T10:22:15.891Z,3.80
2022-08-03T10:25:07.171Z,1.88
2022-08-03T10:27:39.235Z,6.72
2022-08-03T10:30:11.884Z,3.30
2022-08-03T10:32:43.706Z,2.35
2022-08-03T10:35:20.372Z,2.20
2022-08-03T10:38:20.111Z,2.40
2022-08-03T10:40:55.775Z,4.38
2022-08-03T10:43:38.978Z,3.50
2022-08-03T10:46:08.632Z,1.65
2022-08-03T10:48:36.915Z,1.70
2022-08-03T10:51:05.106Z,1.65
2022-08-03T10:53:52.812Z,3.13
2022-08-03T10:56:53.258Z,0.57
2022-08-03T10:59:46.144Z,1.75
2022-08-03T11:02:14.802Z,0.63
2022-08-03T11:04:42.874Z,1.38
2022-08-03T11:07:24.239Z,0.30
2022-08-03T11:09:54.322Z,0.95
2022-08-03T11:12:31.462Z,1.52
2022-08-03T11:15:07.173Z,2.58
2022-08-03T11:17:46.859Z,1.02
2022-08-03T11:20:52.961Z,1.85
2022-08-03T11:24:05.336Z,6.45
2022-08-03T11:26:31.374Z,2.90
2022-08-03T11:29:31.081Z,5.03
2022-08-03T11:31:58.207Z,0.95
2022-08-03T11:34:26.415Z,1.33
2022-08-03T11:37:21.387Z,1.52
2022-08-03T11:39:53.115Z,1.92
2022-08-03T11:42:35.281Z,2.08
2022-08-03T11:45:08.933Z,0.25
2022-08-03T11:47:50.114Z,1.65
2022-08-03T11:50:20.043Z,0.57
2022-08-03T11:52:49.327Z,3.15
2022-08-03T11:55:21.702Z,2.00
2022-08-03T11:59:11.242Z,0.65
2022-08-03T12:00:38.003Z,4.47
2022-08-03T12:03:18.412Z,0.30
2022-08-03T12:05:52.297Z,0.52
2022-08-03T12:08:32.089Z,1.38
2022-08-03T12:11:02.397Z,0.65
2022-08-03T12:14:45.161Z,2.25
2022-08-03T12:16:40.775Z,2.00
2022-08-03T12:19:08.497Z,1.30
2022-08-03T12:21:56.925Z,0.55
2022-08-03T12:24:28.398Z,1.75
2022-08-03T12:26:59.155Z,2.13
2022-08-03T12:29:27.756Z,0.17
2022-08-03T12:31:56.438Z,0.22
2022-08-03T12:34:23.708Z,1.58
2022-08-03T12:36:53.437Z,2.20
2022-08-03T12:39:26.632Z,0.70
2022-08-03T12:44:36.131Z,1.15
2022-08-03T12:47:06.677Z,2.10
2022-08-03T12:49:53.960Z,3.00
2022-08-03T12:52:23.072Z,0.60
2022-08-03T12:54:59.111Z,2.85
2022-08-03T12:57:40.841Z,2.03
2022-08-03T13:00:21.704Z,1.65
2022-08-03T13:05:54.741Z,3.67
2022-08-03T13:08:26.001Z,1.60
2022-08-03T13:10:53.741Z,1.27
2022-08-03T13:13:39.182Z,2.30
2022-08-03T13:16:06.203Z,0.60
2022-08-03T13:18:33.452Z,1.55
2022-08-03T13:21:01.014Z,2.45
2022-08-03T13:23:28.470Z,2.97
2022-08-03T13:25:56.263Z,0.47
2022-08-03T13:28:23.608Z,0.50
2022-08-03T13:30:50.770Z,2.83
2022-08-03T13:33:18.112Z,1.20
2022-08-03T13:35:45.169Z,0.45
2022-08-03T13:38:12.634Z,0.77
2022-08-03T13:40:42.719Z,1.27
2022-08-03T13:43:13.106Z,1.45
2022-08-03T13:45:52.322Z,1.40
2022-08-03T13:48:36.765Z,1.00
2022-08-03T13:51:11.803Z,3.25
2022-08-03T13:53:51.049Z,3.05
2022-08-03T13:56:18.272Z,1.52
2022-08-03T13:58:45.324Z,2.40
2022-08-03T14:01:12.444Z,0.20
2022-08-03T14:03:39.514Z,0.85
2022-08-03T14:06:06.684Z,0.65
2022-08-03T14:08:33.632Z,1.00
2022-08-03T14:11:01.008Z,0.28
2022-08-03T14:13:28.161Z,4.25
2022-08-03T14:15:56.067Z,0.10
2022-08-03T14:18:29.012Z,1.08
2022-08-03T14:21:05.880Z,0.98
2022-08-03T14:23:36.847Z,1.48
2022-08-03T14:26:06.289Z,3.63
2022-08-03T14:28:33.300Z,0.50
2022-08-03T14:31:01.452Z,1.30
2022-08-03T14:33:28.520Z,1.27
2022-08-03T14:35:55.715Z,1.13
2022-08-03T14:38:23.716Z,1.75
2022-08-03T14:40:51.423Z,0.20
2022-08-03T14:43:20.207Z,1.15
2022-08-03T14:45:52.136Z,4.18
2022-08-03T14:50:34.819Z,0.10
2022-08-03T14:51:11.997Z,0.47
2022-08-03T14:53:39.067Z,0.50
2022-08-03T14:56:10.170Z,1.13
2022-08-03T14:58:40.128Z,2.08
2022-08-03T15:02:03.240Z,1.75
2022-08-03T15:03:54.645Z,0.77
2022-08-03T15:06:21.937Z,0.32
2022-08-03T15:09:13.727Z,0.85
2022-08-03T15:11:36.856Z,1.85
2022-08-03T15:14:09.008Z,2.75
2022-08-03T15:16:37.649Z,1.40
2022-08-03T15:20:01.172Z,2.67
2022-08-03T15:21:52.195Z,2.08
2022-08-03T15:24:19.481Z,2.22
2022-08-03T15:26:46.732Z,0.55
2022-08-03T15:30:05.230Z,2.22
2022-08-03T15:32:00.965Z,2.22
2022-08-03T15:34:28.042Z,1.35
2022-08-03T15:36:55.208Z,1.30
2022-08-03T15:39:22.484Z,1.63
2022-08-03T15:41:49.551Z,2.58
2022-08-03T15:44:20.378Z,3.83
2022-08-03T15:46:48.056Z,1.88
2022-08-03T15:49:16.623Z,0.85
2022-08-03T15:51:43.635Z,2.13
2022-08-03T15:54:10.719Z,0.20
2022-08-03T15:56:37.848Z,0.65
2022-08-03T15:59:12.604Z,5.00
2022-08-03T16:01:41.739Z,3.92
2022-08-03T16:04:08.903Z,1.20
2022-08-03T16:06:36.612Z,3.95
2022-08-03T16:09:23.574Z,1.98
2022-08-03T16:11:59.093Z,0.73
2022-08-03T16:14:32.434Z,0.77
2022-08-03T16:17:04.102Z,5.93
2022-08-03T16:19:31.267Z,0.90
2022-08-03T16:22:03.259Z,2.20
2022-08-03T16:24:31.839Z,3.10
2022-08-03T16:27:00.567Z,0.50
2022-08-03T16:29:28.565Z,0.93
2022-08-03T16:31:55.504Z,1.75
2022-08-03T16:34:22.486Z,0.73
2022-08-03T16:36:49.545Z,0.77
2022-08-03T16:39:16.957Z,3.95
2022-08-03T16:41:53.872Z,3.88
2022-08-03T16:44:30.796Z,3.63
2022-08-03T16:46:59.088Z,0.38
2022-08-03T16:49:53.171Z,2.15
2022-08-03T16:52:13.556Z,3.60
2022-08-03T16:54:44.403Z,0.95
2022-08-03T16:57:56.092Z,0.95
2022-08-03T17:00:09.530Z,0.52
2022-08-03T17:02:37.337Z,4.68
2022-08-03T17:05:05.116Z,0.73
2022-08-03T17:07:31.991Z,3.47
2022-08-03T17:10:01.060Z,3.65
2022-08-03T17:12:28.459Z,0.75
2022-08-03T17:14:57.168Z,4.88
2022-08-03T17:17:37.601Z,2.08
2022-08-03T17:20:19.575Z,0.40
2022-08-03T17:23:34.316Z,0.45
2022-08-03T17:26:10.543Z,2.40
2022-08-03T17:28:56.472Z,1.10
2022-08-03T17:34:04.449Z,2.72
2022-08-03T17:37:02.573Z,1.20
2022-08-03T17:39:48.538Z,2.55
2022-08-03T17:42:30.634Z,3.47
2022-08-03T17:45:01.716Z,1.95
2022-08-03T17:50:24.148Z,5.13
2022-08-03T17:53:15.206Z,0.20
2022-08-03T17:55:55.011Z,1.42
2022-08-03T17:58:52.400Z,1.83
2022-08-03T18:02:00.531Z,4.30
2022-08-03T18:04:37.712Z,4.72
2022-08-03T18:07:12.736Z,3.45
2022-08-03T18:10:03.389Z,1.88
2022-08-03T18:12:51.751Z,3.50
2022-08-03T18:15:40.332Z,8.68
2022-08-03T18:18:10.510Z,3.58
2022-08-03T18:20:41.969Z,1.92
2022-08-03T18:23:24.846Z,0.93
2022-08-03T18:26:04.884Z,0.30
2022-08-03T18:28:34.562Z,1.20
2022-08-03T18:31:06.134Z,2.60
2022-08-03T18:34:18.465Z,4.22
2022-08-03T18:39:15.245Z,1.88
2022-08-03T18:41:46.526Z,2.38
2022-08-03T18:44:37.655Z,0.68
2022-08-03T18:47:52.113Z,0.82
2022-08-03T18:50:34.083Z,3.05
2022-08-03T18:54:02.631Z,1.85
2022-08-03T18:56:55.083Z,1.50
2022-08-03T18:59:34.878Z,2.85
2022-08-03T19:02:26.674Z,1.02
2022-08-03T19:04:55.323Z,4.57
2022-08-03T19:07:27.344Z,1.40
2022-08-03T19:10:06.988Z,1.63
2022-08-03T19:12:56.273Z,2.15
2022-08-03T19:15:36.848Z,2.10
2022-08-03T19:18:11.917Z,2.63
2022-08-03T19:20:54.741Z,1.77
2022-08-03T19:23:25.622Z,2.33
2022-08-03T19:28:41.565Z,1.00
2022-08-03T19:31:11.317Z,3.08
2022-08-03T19:33:57.295Z,4.32
2022-08-03T19:36:28.622Z,1.30
2022-08-03T19:38:57.590Z,1.05
2022-08-03T19:41:31.187Z,2.25
2022-08-03T19:44:20.205Z,3.08
2022-08-03T19:46:54.675Z,1.80
2022-08-03T19:49:59.920Z,3.50
2022-08-03T19:52:24.164Z,3.03
2022-08-03T19:54:54.647Z,2.50
2022-08-03T19:57:27.329Z,0.95
2022-08-03T19:59:56.931Z,1.38
2022-08-03T20:02:34.432Z,5.50
2022-08-03T20:05:02.230Z,1.05
2022-08-03T20:07:32.873Z,5.60
2022-08-03T20:10:04.317Z,2.05
2022-08-03T20:12:39.080Z,1.85
2022-08-03T20:15:09.173Z,2.75
2022-08-03T20:17:56.903Z,1.88
2022-08-03T20:20:35.782Z,3.70
2022-08-03T20:23:20.619Z,0.45
2022-08-03T20:26:00.557Z,2.13
2022-08-03T20:28:33.334Z,1.95
2022-08-03T20:31:02.007Z,1.20
2022-08-03T20:33:45.887Z,6.78
2022-08-03T20:36:17.920Z,1.70
2022-08-03T20:38:47.908Z,4.82
2022-08-03T20:41:17.267Z,2.25
2022-08-03T20:43:45.387Z,6.10
2022-08-03T20:46:31.868Z,4.13
2022-08-03T20:49:04.988Z,3.95
2022-08-03T20:51:50.395Z,3.15
2022-08-03T20:54:29.601Z,3.72
2022-08-03T20:57:04.130Z,5.05
2022-08-03T20:59:50.839Z,1.98
2022-08-03T21:02:29.208Z,5.60
2022-08-03T21:05:02.856Z,4.50
2022-08-03T21:08:06.425Z,3.58
2022-08-03T21:10:39.693Z,1.15
2022-08-03T21:12:55.172Z,2.40
2022-08-03T21:13:08.186Z,0.57
2022-08-03T21:13:23.446Z,2.38
2022-08-03T21:16:12.178Z,4.40
2022-08-03T21:18:51.817Z,4.57
2022-08-03T21:21:22.496Z,1.45
2022-08-03T21:23:55.004Z,2.92
2022-08-03T21:26:25.885Z,4.50
2022-08-03T21:28:56.965Z,1.88
2022-08-03T21:31:26.561Z,2.40
2022-08-03T21:33:57.246Z,2.53
2022-08-03T21:36:31.116Z,2.15
2022-08-03T21:38:59.474Z,1.00
2022-08-03T21:41:30.605Z,4.05
2022-08-03T21:43:59.242Z,1.52
2022-08-03T21:46:30.807Z,4.25
2022-08-03T21:49:51.900Z,4.22
2022-08-03T21:51:50.483Z,3.10
2022-08-03T21:54:34.650Z,4.32
2022-08-03T21:57:06.549Z,2.83
2022-08-03T21:59:38.104Z,4.95
2022-08-03T22:02:32.226Z,1.95
2022-08-03T22:04:59.634Z,8.20
2022-08-03T22:07:37.701Z,5.38
2022-08-03T22:10:07.742Z,2.03
2022-08-03T22:12:35.687Z,3.15
2022-08-03T22:15:07.458Z,1.88
2022-08-03T22:17:55.418Z,3.05
2022-08-03T22:20:25.177Z,4.93
2022-08-03T22:22:57.026Z,2.65
2022-08-03T22:25:29.299Z,3.47
2022-08-03T22:27:59.769Z,3.30
2022-08-03T22:30:27.116Z,8.10
2022-08-03T22:32:56.316Z,5.85
2022-08-03T22:35:26.555Z,5.90
2022-08-03T22:37:58.428Z,12.60
2022-08-03T22:40:28.294Z,12.52
2022-08-03T22:42:55.465Z,5.28
2022-08-03T22:46:07.717Z,7.63
2022-08-03T22:48:11.212Z,12.90
2022-08-03T22:50:39.030Z,20.27
2022-08-03T22:53:06.791Z,19.38
2022-08-03T22:55:34.348Z,9.70
2022-08-03T22:58:01.282Z,8.13
2022-08-03T23:00:28.407Z,5.72
2022-08-03T23:02:58.552Z,9.23
2022-08-03T23:06:01.736Z,7.57
2022-08-03T23:08:25.510Z,10.43
2022-08-03T23:10:54.342Z,6.88
2022-08-03T23:13:25.407Z,6.93
2022-08-03T23:15:57.723Z,8.50
2022-08-03T23:18:30.433Z,7.18
2022-08-03T23:21:02.405Z,7.22
2022-08-03T23:23:44.520Z,5.57
2022-08-03T23:28:45.501Z,8.57
2022-08-03T23:31:14.444Z,5.63
2022-08-03T23:33:44.684Z,6.68
2022-08-03T23:36:30.954Z,6.72
2022-08-03T23:39:03.265Z,7.93
2022-08-03T23:41:31.048Z,7.07
2022-08-03T23:44:01.491Z,7.15
2022-08-03T23:46:30.532Z,7.50
2022-08-03T23:49:06.512Z,7.57
2022-08-03T23:51:41.214Z,9.88
2022-08-03T23:54:26.705Z,7.20
2022-08-03T23:57:19.513Z,9.13
